Time;durP1;ratioP1;P1;durP2;ratioP2;P2;SDS_P1;SDS_P2;PMS_P1;PMS_P2;Temp;Humidity;BMP_temperature;BMP_pressure;BME280_temperature;BME280_humidity;BME280_pressure;Samples;Min_cycle;Max_cycle;Signal;HPM_P1;HPM_P2
2022/03/27 00:01:28;;;;;;;29.67;11.40;;;7.60;53.10;;;;;;4931660;29;20027;-85
2022/03/27 00:03:53;;;;;;;30.90;11.77;;;7.60;53.30;;;;;;4951804;29;20031;-85
2022/03/27 00:06:19;;;;;;;23.67;10.60;;;7.60;53.40;;;;;;4945092;29;20047;-85
2022/03/27 00:08:44;;;;;;;30.60;12.50;;;7.60;53.40;;;;;;4963995;28;20027;-85
2022/03/27 00:11:26;;;;;;;26.33;11.23;;;7.50;53.30;;;;;;4947169;28;20087;-83
2022/03/27 00:13:53;;;;;;;22.88;10.90;;;7.50;53.50;;;;;;4954991;28;20038;-86
2022/03/27 00:16:19;;;;;;;32.97;12.10;;;7.50;53.50;;;;;;4958664;28;20078;-85
2022/03/27 00:18:45;;;;;;;27.30;12.35;;;7.40;53.60;;;;;;4946414;29;20023;-85
2022/03/27 00:21:11;;;;;;;26.77;11.73;;;7.40;53.70;;;;;;4947494;29;20027;-86
2022/03/27 00:23:37;;;;;;;25.85;11.85;;;7.30;53.50;;;;;;4952079;29;20059;-84
2022/03/27 00:26:04;;;;;;;23.98;11.57;;;7.30;53.50;;;;;;4947754;29;20405;-85
2022/03/27 00:28:32;;;;;;;26.98;12.43;;;7.20;53.60;;;;;;4954624;29;20062;-83
2022/03/27 00:31:04;;;;;;;30.05;12.63;;;7.10;53.70;;;;;;4939475;29;20050;-85
2022/03/27 00:33:30;;;;;;;35.83;12.20;;;7.00;54.20;;;;;;4951195;29;20055;-86
2022/03/27 00:35:56;;;;;;;28.63;12.95;;;7.00;54.10;;;;;;4945840;28;20024;-84
2022/03/27 00:38:23;;;;;;;23.05;11.23;;;7.00;54.20;;;;;;4953405;29;20023;-86
2022/03/27 00:40:50;;;;;;;25.40;11.95;;;6.90;54.40;;;;;;4959901;28;20031;-84
2022/03/27 00:43:16;;;;;;;30.13;12.57;;;6.90;54.70;;;;;;4958769;29;20031;-85
2022/03/27 00:45:42;;;;;;;30.80;12.57;;;7.00;54.90;;;;;;4944755;28;20138;-86
2022/03/27 00:48:07;;;;;;;24.83;11.95;;;7.00;55.00;;;;;;4956642;28;20039;-84
2022/03/27 00:50:33;;;;;;;29.95;12.15;;;7.00;55.00;;;;;;4952938;28;20059;-84
2022/03/27 00:52:59;;;;;;;25.95;11.50;;;6.90;54.90;;;;;;4965837;28;20038;-85
2022/03/27 00:55:25;;;;;;;28.40;12.13;;;6.90;54.90;;;;;;4963275;28;20050;-86
2022/03/27 00:57:50;;;;;;;29.42;12.20;;;6.90;55.00;;;;;;4948341;29;20087;-85
2022/03/27 01:00:43;;;;;;;30.38;12.50;;;6.90;54.90;;;;;;4948069;29;20279;-85
2022/03/27 01:03:12;;;;;;;27.00;12.02;;;7.00;55.10;;;;;;4936210;28;20035;-85
2022/03/27 01:05:41;;;;;;;28.02;11.93;;;6.90;54.80;;;;;;4952527;29;20046;-84
2022/03/27 01:08:10;;;;;;;28.27;12.93;;;6.90;54.90;;;;;;4932818;29;20031;-85
2022/03/27 01:10:36;;;;;;;31.15;12.15;;;6.80;55.10;;;;;;4952225;29;20031;-84
2022/03/27 01:13:16;;;;;;;23.65;11.77;;;6.80;55.30;;;;;;4966370;29;20103;-84
2022/03/27 01:15:43;;;;;;;31.98;11.68;;;6.80;55.30;;;;;;4962481;28;20035;-83
2022/03/27 01:18:09;;;;;;;25.33;10.93;;;6.80;55.30;;;;;;4958227;29;20016;-83
2022/03/27 01:20:36;;;;;;;24.98;11.70;;;6.70;55.40;;;;;;4967367;28;20090;-87
2022/03/27 01:23:06;;;;;;;26.13;12.07;;;6.70;55.50;;;;;;4956404;29;20036;-83
2022/03/27 01:25:32;;;;;;;27.33;11.55;;;6.60;55.50;;;;;;4948744;29;20023;-85
2022/03/27 01:27:57;;;;;;;25.38;12.00;;;6.60;56.10;;;;;;4943096;29;20062;-85
2022/03/27 01:30:23;;;;;;;23.45;12.00;;;6.50;55.70;;;;;;4948898;29;20047;-86
2022/03/27 01:32:51;;;;;;;24.70;11.93;;;6.50;55.70;;;;;;4956439;29;20024;-85
2022/03/27 01:35:18;;;;;;;28.70;12.30;;;6.50;55.80;;;;;;4948753;29;20127;-85
2022/03/27 01:37:44;;;;;;;27.10;11.75;;;6.50;55.90;;;;;;4952047;28;20024;-85
2022/03/27 01:40:11;;;;;;;27.27;11.40;;;6.40;56.00;;;;;;4943139;29;20136;-85
2022/03/27 01:42:36;;;;;;;24.38;11.10;;;6.50;56.10;;;;;;4955443;29;20035;-84
2022/03/27 01:45:03;;;;;;;26.65;12.07;;;6.40;56.00;;;;;;4948443;29;20042;-84
2022/03/27 01:47:29;;;;;;;21.65;10.73;;;6.50;56.10;;;;;;4960408;28;20090;-86
2022/03/27 01:49:54;;;;;;;27.25;12.32;;;6.40;56.10;;;;;;4957875;29;20402;-85
2022/03/27 01:52:20;;;;;;;22.33;12.07;;;6.40;56.10;;;;;;4963073;29;20118;-86
2022/03/27 01:54:45;;;;;;;27.00;11.70;;;6.40;56.20;;;;;;4971124;28;20031;-86
2022/03/27 01:57:12;;;;;;;25.23;12.18;;;6.40;56.30;;;;;;4958083;29;20034;-84
2022/03/27 01:59:38;;;;;;;25.95;11.85;;;6.30;56.30;;;;;;4966505;28;20027;-84
2022/03/27 02:02:04;;;;;;;31.83;11.90;;;6.30;56.40;;;;;;4971016;29;20021;-82
2022/03/27 02:04:29;;;;;;;30.55;13.25;;;6.30;56.50;;;;;;4957790;28;20024;-84
2022/03/27 02:06:55;;;;;;;27.45;11.48;;;6.20;56.50;;;;;;4957581;29;20035;-85
2022/03/27 02:09:20;;;;;;;24.48;11.85;;;6.20;56.60;;;;;;4967020;28;20037;-85
2022/03/27 02:11:46;;;;;;;26.50;12.82;;;6.10;56.60;;;;;;4959031;29;20074;-88
2022/03/27 02:14:12;;;;;;;27.38;12.07;;;6.10;56.70;;;;;;4950833;29;20563;-87
2022/03/27 02:16:38;;;;;;;27.33;12.35;;;6.10;57.00;;;;;;4982228;28;20023;-86
2022/03/27 02:19:08;;;;;;;28.45;12.07;;;6.10;57.20;;;;;;4963250;29;20082;-85
2022/03/27 02:21:34;;;;;;;25.20;12.52;;;6.00;57.20;;;;;;4953677;28;20019;-86
2022/03/27 02:24:03;;;;;;;24.92;11.98;;;6.10;57.30;;;;;;4972538;28;20023;-85
2022/03/27 02:26:29;;;;;;;29.38;11.50;;;6.00;57.40;;;;;;4955101;29;20062;-86
2022/03/27 02:28:55;;;;;;;27.63;12.52;;;6.00;57.50;;;;;;4970167;28;20077;-87
2022/03/27 02:31:20;;;;;;;27.30;12.30;;;6.00;57.60;;;;;;4955101;29;20043;-85
2022/03/27 02:33:46;;;;;;;25.30;11.65;;;6.00;57.50;;;;;;4968727;29;20031;-83
2022/03/27 02:36:12;;;;;;;25.75;11.80;;;6.00;57.50;;;;;;4968386;28;20030;-82
2022/03/27 02:38:38;;;;;;;27.48;12.57;;;6.00;57.50;;;;;;4970344;28;20127;-83
2022/03/27 02:41:04;;;;;;;29.08;11.98;;;5.90;57.50;;;;;;4987195;28;20102;-82
2022/03/27 02:43:30;;;;;;;28.27;11.95;;;5.80;57.40;;;;;;4977948;28;20046;-83
2022/03/27 02:51:09;;;;;;;25.38;12.30;;;5.70;57.70;;;;;;5146095;22;20055;-90
2022/03/27 02:53:35;;;;;;;27.65;11.18;;;5.70;57.70;;;;;;4952713;28;20023;-90
2022/03/27 02:56:04;;;;;;;24.48;12.25;;;5.60;57.70;;;;;;4950539;28;20144;-90
2022/03/27 02:58:30;;;;;;;25.55;12.57;;;5.60;57.70;;;;;;4948250;28;20032;-90
2022/03/27 03:00:58;;;;;;;26.50;12.00;;;5.50;57.90;;;;;;4953799;28;20113;-90
2022/03/27 03:03:24;;;;;;;30.15;12.35;;;5.50;58.20;;;;;;4964193;28;20040;-89
2022/03/27 03:05:50;;;;;;;32.10;13.10;;;5.50;58.30;;;;;;4938359;29;20031;-91
2022/03/27 03:08:17;;;;;;;23.60;11.52;;;5.50;58.30;;;;;;4929551;29;20564;-90
2022/03/27 03:10:43;;;;;;;27.88;10.93;;;5.50;58.40;;;;;;4958904;28;20452;-91
2022/03/27 03:13:10;;;;;;;26.27;12.35;;;5.50;58.40;;;;;;4960312;28;20066;-91
2022/03/27 03:15:42;;;;;;;27.25;12.65;;;5.50;58.50;;;;;;4948397;28;20027;-92
2022/03/27 03:18:09;;;;;;;29.23;12.20;;;5.60;58.60;;;;;;4945190;29;20027;-92
2022/03/27 03:20:35;;;;;;;27.13;11.88;;;5.50;58.30;;;;;;4949958;28;20042;-89
2022/03/27 03:23:01;;;;;;;23.05;11.73;;;5.50;58.40;;;;;;4946616;28;20034;-91
2022/03/27 03:25:27;;;;;;;27.58;11.55;;;5.40;58.50;;;;;;4938460;28;20094;-90
2022/03/27 03:27:53;;;;;;;28.80;12.02;;;5.40;58.60;;;;;;4941296;28;20035;-89
2022/03/27 03:30:18;;;;;;;29.25;11.77;;;5.40;58.50;;;;;;4945961;28;20035;-91
2022/03/27 03:32:44;;;;;;;27.05;11.68;;;5.30;59.00;;;;;;4959628;28;20526;-91
2022/03/27 03:35:16;;;;;;;28.67;10.85;;;5.20;58.70;;;;;;4946046;28;20039;-90
2022/03/27 03:37:42;;;;;;;31.35;11.98;;;5.20;58.80;;;;;;4950909;28;20110;-91
2022/03/27 03:40:09;;;;;;;24.65;11.05;;;5.20;58.80;;;;;;4953561;28;20134;-92
2022/03/27 03:42:36;;;;;;;27.27;11.85;;;5.20;59.00;;;;;;4950982;28;20054;-91
2022/03/27 03:45:03;;;;;;;23.13;11.30;;;5.20;59.00;;;;;;4956940;28;20038;-90
2022/03/27 03:47:29;;;;;;;32.63;12.50;;;5.20;58.90;;;;;;4951496;28;20126;-90
2022/03/27 03:49:55;;;;;;;25.02;11.90;;;5.10;58.90;;;;;;4954299;28;20031;-90
2022/03/27 03:52:21;;;;;;;26.65;12.07;;;5.10;59.10;;;;;;4952882;28;20035;-91
2022/03/27 03:54:47;;;;;;;28.67;12.55;;;5.00;59.10;;;;;;4951515;28;20027;-90
2022/03/27 03:57:13;;;;;;;34.05;12.98;;;5.00;59.20;;;;;;4937602;28;20032;-91
2022/03/27 03:59:39;;;;;;;26.25;12.32;;;5.00;59.20;;;;;;4950068;28;20042;-90
2022/03/27 04:02:06;;;;;;;24.48;12.02;;;5.00;59.30;;;;;;4948052;28;20031;-91
2022/03/27 04:04:33;;;;;;;34.83;12.88;;;4.90;59.30;;;;;;4947736;29;20035;-91
2022/03/27 04:06:59;;;;;;;27.52;12.48;;;4.90;59.30;;;;;;4941811;29;20027;-92
2022/03/27 04:09:26;;;;;;;26.45;12.20;;;4.80;59.40;;;;;;4945808;28;20042;-91
2022/03/27 04:11:52;;;;;;;24.05;11.85;;;4.80;59.60;;;;;;4951156;28;20027;-89
2022/03/27 04:14:18;;;;;;;33.95;13.60;;;4.80;59.70;;;;;;4933850;28;20491;-90
2022/03/27 04:16:43;;;;;;;26.15;12.25;;;4.80;59.70;;;;;;4955181;28;20074;-90
2022/03/27 04:19:09;;;;;;;26.48;12.55;;;4.70;59.70;;;;;;4935056;29;20028;-89
2022/03/27 04:21:35;;;;;;;29.25;13.27;;;4.70;59.80;;;;;;4933947;28;20035;-90
2022/03/27 04:24:00;;;;;;;29.90;12.77;;;4.70;59.90;;;;;;4937379;29;20391;-90
2022/03/27 04:26:26;;;;;;;29.48;13.02;;;4.70;59.90;;;;;;4940664;29;20520;-90
2022/03/27 04:28:52;;;;;;;32.47;13.07;;;4.70;60.00;;;;;;4936148;28;20125;-91
2022/03/27 04:31:18;;;;;;;29.35;13.68;;;4.70;60.00;;;;;;4951654;28;20034;-91
2022/03/27 04:33:44;;;;;;;30.60;13.85;;;4.70;60.00;;;;;;4954237;28;20028;-91
2022/03/27 04:36:10;;;;;;;30.73;13.20;;;4.70;60.20;;;;;;4949510;28;20030;-90
2022/03/27 04:38:35;;;;;;;26.10;12.70;;;4.70;60.20;;;;;;4941696;28;20384;-91
2022/03/27 04:41:03;;;;;;;30.83;13.80;;;4.70;60.20;;;;;;4961198;28;20448;-90
2022/03/27 04:43:29;;;;;;;24.25;12.95;;;4.60;60.30;;;;;;4940692;29;20078;-90
2022/03/27 04:45:55;;;;;;;31.23;13.25;;;4.60;60.40;;;;;;4948658;28;20027;-90
2022/03/27 04:48:20;;;;;;;24.27;13.07;;;4.60;61.10;;;;;;4942125;29;20035;-90
2022/03/27 04:50:48;;;;;;;25.50;12.45;;;4.70;60.60;;;;;;4954534;28;20034;-90
2022/03/27 04:53:13;;;;;;;31.80;13.18;;;4.70;60.60;;;;;;4928066;29;20062;-90
2022/03/27 04:55:39;;;;;;;27.95;13.02;;;4.70;60.60;;;;;;4935632;29;20049;-91
2022/03/27 04:58:09;;;;;;;29.70;12.82;;;4.70;60.50;;;;;;4944350;28;20027;-91
2022/03/27 05:00:35;;;;;;;31.48;13.25;;;4.60;60.70;;;;;;4932255;28;20031;-91
2022/03/27 05:03:01;;;;;;;32.72;12.60;;;4.60;60.60;;;;;;4938991;28;20400;-91
2022/03/27 05:05:27;;;;;;;30.17;12.18;;;4.60;60.70;;;;;;4948634;28;20031;-92
2022/03/27 05:07:53;;;;;;;33.15;12.43;;;4.50;60.70;;;;;;4935753;28;20034;-90
2022/03/27 05:10:19;;;;;;;24.10;11.88;;;4.50;60.90;;;;;;4949405;29;20066;-91
2022/03/27 05:12:45;;;;;;;27.08;11.52;;;4.50;61.00;;;;;;4943212;28;20026;-91
2022/03/27 05:15:12;;;;;;;24.75;11.95;;;4.40;61.00;;;;;;4949051;29;20037;-91
2022/03/27 05:17:54;;;;;;;26.60;12.57;;;4.40;61.00;;;;;;4940396;28;20019;-90
2022/03/27 05:20:21;;;;;;;26.45;11.50;;;4.40;61.40;;;;;;4937529;29;20055;-90
2022/03/27 05:22:47;;;;;;;28.30;12.68;;;4.40;61.10;;;;;;4948823;28;20056;-91
2022/03/27 05:25:15;;;;;;;28.10;12.57;;;4.50;61.20;;;;;;4967357;28;20078;-90
2022/03/27 05:27:53;;;;;;;24.90;11.82;;;4.50;61.30;;;;;;4939938;28;20085;-90
2022/03/27 05:30:21;;;;;;;24.73;11.68;;;4.50;61.40;;;;;;4969551;28;20410;-89
2022/03/27 05:32:48;;;;;;;23.00;11.48;;;4.50;61.30;;;;;;4936129;28;20040;-91
2022/03/27 05:35:14;;;;;;;25.13;11.30;;;4.40;61.30;;;;;;4957837;28;20027;-90
2022/03/27 05:37:41;;;;;;;24.33;11.70;;;4.40;61.40;;;;;;4941521;28;20023;-89
2022/03/27 05:40:10;;;;;;;27.17;12.77;;;4.40;61.50;;;;;;4942114;28;20030;-90
2022/03/27 05:42:36;;;;;;;25.48;11.73;;;4.40;61.50;;;;;;4939872;28;20028;-90
2022/03/27 05:45:03;;;;;;;27.02;12.05;;;4.40;61.50;;;;;;4958614;28;20035;-91
2022/03/27 05:47:29;;;;;;;21.85;11.48;;;4.50;61.70;;;;;;4957075;28;20030;-90
2022/03/27 05:49:56;;;;;;;24.98;12.73;;;4.50;61.70;;;;;;4956452;28;20109;-91
2022/03/27 05:52:22;;;;;;;26.48;12.05;;;4.50;61.80;;;;;;4949290;28;20039;-91
2022/03/27 05:54:51;;;;;;;25.13;11.50;;;4.60;61.90;;;;;;4942982;28;20074;-91
2022/03/27 05:57:20;;;;;;;27.48;12.75;;;4.70;62.10;;;;;;4945583;28;20029;-91
2022/03/27 05:59:47;;;;;;;25.98;11.80;;;4.70;62.00;;;;;;4948373;29;20039;-91
2022/03/27 06:02:14;;;;;;;27.80;12.00;;;4.80;62.00;;;;;;4948659;29;20126;-91
2022/03/27 06:04:41;;;;;;;25.00;11.60;;;4.80;62.10;;;;;;4968442;28;20066;-92
2022/03/27 06:07:07;;;;;;;24.05;11.75;;;4.90;62.10;;;;;;4964107;28;20054;-91
2022/03/27 06:09:33;;;;;;;29.00;12.32;;;4.90;62.00;;;;;;4977066;28;20023;-90
2022/03/27 06:11:59;;;;;;;29.45;11.57;;;4.90;62.10;;;;;;4950940;28;20480;-90
2022/03/27 06:14:25;;;;;;;24.85;11.75;;;5.00;62.20;;;;;;4949155;28;20062;-90
2022/03/27 06:16:51;;;;;;;31.20;12.77;;;5.00;62.30;;;;;;4962103;28;20034;-91
2022/03/27 06:19:16;;;;;;;27.08;12.00;;;5.20;62.50;;;;;;4957188;28;20031;-90
2022/03/27 06:21:44;;;;;;;27.30;12.98;;;5.30;62.50;;;;;;4978257;28;20081;-91
2022/03/27 06:24:11;;;;;;;29.38;12.75;;;5.40;62.40;;;;;;4982430;28;20086;-90
2022/03/27 06:26:36;;;;;;;27.27;13.05;;;5.50;62.40;;;;;;4951862;28;20043;-91
2022/03/27 06:29:03;;;;;;;33.35;13.95;;;5.60;62.40;;;;;;4948534;29;20118;-91
2022/03/27 06:31:29;;;;;;;31.65;12.75;;;5.70;62.30;;;;;;4939419;28;20058;-91
2022/03/27 06:33:55;;;;;;;29.10;11.82;;;5.80;62.20;;;;;;4946766;28;20016;-90
2022/03/27 06:36:21;;;;;;;24.90;11.63;;;5.90;62.20;;;;;;4948337;28;20039;-92
2022/03/27 06:38:46;;;;;;;25.67;12.20;;;6.00;62.40;;;;;;4937392;28;20020;-91
2022/03/27 06:41:12;;;;;;;27.48;12.15;;;6.20;62.50;;;;;;4959949;28;20039;-91
2022/03/27 06:43:38;;;;;;;32.70;13.35;;;6.30;62.40;;;;;;4950400;28;20119;-90
2022/03/27 06:46:05;;;;;;;22.48;12.82;;;6.40;62.50;;;;;;4940515;29;20118;-90
2022/03/27 06:48:31;;;;;;;29.67;12.43;;;6.60;62.50;;;;;;4941248;29;20035;-90
2022/03/27 06:50:57;;;;;;;25.13;11.73;;;6.70;62.20;;;;;;4950063;28;20049;-90
2022/03/27 06:53:24;;;;;;;23.92;12.55;;;6.90;62.30;;;;;;4950546;28;20027;-89
2022/03/27 06:55:51;;;;;;;27.38;12.02;;;7.00;62.60;;;;;;4938064;28;20027;-89
2022/03/27 06:58:17;;;;;;;26.58;12.85;;;7.30;62.20;;;;;;4941356;29;20034;-90
2022/03/27 07:03:34;;;;;;;32.33;13.00;;;7.80;61.80;;;;;;4948278;28;20070;-91
2022/03/27 07:06:00;;;;;;;26.25;12.57;;;8.00;61.60;;;;;;4929828;29;20035;-89
2022/03/27 07:08:26;;;;;;;24.73;13.05;;;8.30;61.10;;;;;;4933099;28;20043;-90
2022/03/27 07:10:52;;;;;;;30.50;12.32;;;8.70;61.00;;;;;;4957848;28;20028;-90
2022/03/27 07:13:19;;;;;;;29.73;12.45;;;9.00;60.60;;;;;;4940575;28;20028;-91
2022/03/27 07:15:49;;;;;;;24.42;11.55;;;9.40;60.30;;;;;;4950632;28;20019;-90
2022/03/27 07:18:22;;;;;;;24.95;12.07;;;9.80;59.80;;;;;;4939796;29;20024;-91
2022/03/27 07:20:51;;;;;;;26.45;11.80;;;10.30;59.20;;;;;;4957443;28;20035;-91
2022/03/27 07:23:24;;;;;;;28.52;11.82;;;11.00;58.90;;;;;;4946374;28;20027;-91
2022/03/27 07:26:00;;;;;;;31.23;12.52;;;11.50;58.50;;;;;;4923922;29;20105;-91
2022/03/27 07:28:35;;;;;;;23.48;10.82;;;12.00;58.40;;;;;;4946534;28;20487;-91
2022/03/27 07:31:02;;;;;;;27.33;12.35;;;12.30;58.30;;;;;;4939398;29;20040;-91
2022/03/27 07:33:28;;;;;;;20.38;11.50;;;12.70;58.20;;;;;;4933950;29;20124;-91
2022/03/27 07:35:55;;;;;;;24.08;11.73;;;13.00;57.90;;;;;;4947773;29;20110;-91
2022/03/27 07:38:21;;;;;;;22.05;12.00;;;13.50;57.90;;;;;;4940122;29;20065;-90
2022/03/27 07:40:47;;;;;;;26.33;12.13;;;14.10;56.50;;;;;;4940876;28;20547;-91
2022/03/27 07:43:14;;;;;;;21.85;11.10;;;14.70;55.40;;;;;;4953175;28;20086;-90
2022/03/27 07:45:40;;;;;;;23.88;11.68;;;15.30;54.40;;;;;;4964349;28;20051;-89
2022/03/27 07:48:08;;;;;;;21.50;11.93;;;16.10;53.50;;;;;;4965574;28;20023;-91
2022/03/27 07:50:37;;;;;;;21.15;11.27;;;16.70;52.50;;;;;;4957364;28;20051;-90
2022/03/27 07:53:06;;;;;;;20.38;11.75;;;17.30;51.60;;;;;;4946902;28;20046;-91
2022/03/27 07:56:07;;;;;;;27.55;11.43;;;18.00;50.80;;;;;;4955198;29;20091;-91
2022/03/27 08:46:05;;;;;;;19.13;11.15;;;26.40;40.30;;;;;;4959848;28;20184;-92
2022/03/27 09:05:27;;;;;;;24.10;10.32;;;25.60;39.70;;;;;;4893899;29;20039;-91
2022/03/27 09:08:54;;;;;;;17.65;9.27;;;25.30;39.90;;;;;;4891435;29;20097;-88
2022/03/27 09:11:50;;;;;;;20.35;10.38;;;24.80;40.30;;;;;;4894126;29;20040;-88
2022/03/27 09:15:35;;;;;;;22.75;9.35;;;24.60;40.80;;;;;;4856988;29;20033;-90
2022/03/27 09:22:21;;;;;;;21.92;9.57;;;24.10;40.50;;;;;;4808701;29;20091;-89
2022/03/27 09:25:01;;;;;;;20.88;8.73;;;23.90;40.50;;;;;;4837602;29;20045;-88
2022/03/27 09:27:39;;;;;;;17.45;8.80;;;23.80;40.90;;;;;;4849650;29;20492;-88
2022/03/27 09:30:34;;;;;;;19.05;9.38;;;23.70;40.90;;;;;;4859404;29;20073;-88
2022/03/27 09:33:07;;;;;;;17.48;9.40;;;23.70;41.00;;;;;;4869519;29;20041;-89
2022/03/27 09:35:37;;;;;;;20.92;9.23;;;23.60;40.90;;;;;;4876642;29;20039;-89
2022/03/27 09:38:14;;;;;;;18.52;9.75;;;23.40;40.90;;;;;;4918590;29;20039;-89
2022/03/27 09:40:39;;;;;;;15.23;8.85;;;23.10;41.00;;;;;;4924275;29;20494;-90
2022/03/27 09:43:11;;;;;;;17.92;9.18;;;23.00;41.30;;;;;;4938828;29;20042;-90
2022/03/27 09:45:37;;;;;;;18.90;9.93;;;22.70;41.30;;;;;;4949795;28;20054;-88
2022/03/27 09:48:09;;;;;;;20.90;10.40;;;22.60;41.90;;;;;;4942160;28;20019;-88
2022/03/27 09:50:36;;;;;;;18.75;9.93;;;22.50;41.70;;;;;;4946410;28;20035;-89
2022/03/27 09:53:28;;;;;;;19.00;9.50;;;22.50;41.90;;;;;;4958021;28;20517;-88
2022/03/27 09:56:09;;;;;;;19.15;9.38;;;22.50;42.00;;;;;;4940238;29;20020;-89
2022/03/27 09:58:46;;;;;;;17.00;9.48;;;22.50;41.90;;;;;;4959576;28;20035;-87
2022/03/27 10:01:17;;;;;;;18.02;8.27;;;22.60;42.00;;;;;;4947855;29;20039;-89
2022/03/27 10:04:13;;;;;;;17.00;8.52;;;22.60;41.80;;;;;;4938049;29;20470;-89
2022/03/27 10:06:40;;;;;;;20.63;8.30;;;22.60;41.50;;;;;;4934753;29;20054;-88
2022/03/27 10:09:13;;;;;;;20.10;8.85;;;22.40;41.90;;;;;;4940350;29;20091;-88
2022/03/27 10:11:41;;;;;;;23.85;9.55;;;22.30;41.30;;;;;;4938783;28;20036;-88
2022/03/27 10:14:07;;;;;;;16.17;9.05;;;22.30;41.40;;;;;;4974994;28;20023;-88
2022/03/27 10:16:42;;;;;;;17.08;9.30;;;22.20;41.30;;;;;;4962862;28;20038;-90
2022/03/27 10:19:12;;;;;;;19.45;8.95;;;22.10;41.30;;;;;;4958418;28;20027;-87
2022/03/27 10:22:32;;;;;;;18.73;9.85;;;22.00;41.50;;;;;;4952600;29;20023;-88
2022/03/27 10:25:02;;;;;;;20.55;9.48;;;22.10;41.60;;;;;;4931178;29;20057;-86
2022/03/27 10:27:30;;;;;;;18.00;9.75;;;22.10;41.50;;;;;;4938547;29;20471;-86
2022/03/27 10:29:58;;;;;;;22.30;8.90;;;22.20;41.40;;;;;;4938300;29;20031;-86
2022/03/27 10:32:24;;;;;;;22.20;8.90;;;22.20;41.10;;;;;;4949148;29;20520;-87
2022/03/27 10:35:15;;;;;;;22.48;8.98;;;22.10;41.10;;;;;;4921847;29;20051;-87
2022/03/27 10:37:53;;;;;;;17.80;8.63;;;22.20;41.00;;;;;;4939657;29;20110;-88
2022/03/27 10:40:31;;;;;;;18.42;8.65;;;22.20;41.00;;;;;;4938091;29;20103;-88
2022/03/27 10:43:09;;;;;;;18.38;7.70;;;22.30;41.10;;;;;;4921895;29;20038;-89
2022/03/27 10:45:35;;;;;;;18.65;7.93;;;22.30;40.70;;;;;;4921070;29;20038;-88
2022/03/27 10:48:11;;;;;;;17.98;8.25;;;22.30;40.50;;;;;;4921020;29;20023;-88
2022/03/27 10:50:51;;;;;;;17.90;7.65;;;22.20;40.50;;;;;;4924644;29;20032;-89
2022/03/27 10:53:19;;;;;;;18.10;8.05;;;22.20;40.50;;;;;;4964139;28;20448;-88
2022/03/27 10:55:47;;;;;;;15.25;8.27;;;22.30;40.40;;;;;;4950695;29;20023;-88
2022/03/27 10:58:30;;;;;;;16.00;7.68;;;22.30;40.50;;;;;;4942799;29;20545;-88
2022/03/27 11:01:28;;;;;;;16.20;7.30;;;22.40;40.40;;;;;;4919236;28;1088981;-88
2022/03/27 11:04:38;;;;;;;14.50;7.80;;;22.40;40.30;;;;;;4954256;28;20719;-88
2022/03/27 11:07:17;;;;;;;15.85;7.90;;;22.50;40.20;;;;;;4959106;28;20045;-88
2022/03/27 11:09:46;;;;;;;14.05;7.93;;;22.40;40.00;;;;;;4976440;28;20597;-88
2022/03/27 11:12:29;;;;;;;18.38;8.35;;;22.30;40.00;;;;;;4960771;28;20065;-89
2022/03/27 11:15:05;;;;;;;17.77;7.47;;;22.30;40.00;;;;;;4936234;29;20031;-89
2022/03/27 11:18:27;;;;;;;16.67;7.25;;;22.20;40.10;;;;;;4948436;29;20014;-90
2022/03/27 11:20:53;;;;;;;13.93;8.00;;;22.20;40.10;;;;;;4967590;28;20031;-89
2022/03/27 11:23:27;;;;;;;14.60;8.07;;;22.30;40.30;;;;;;4958058;28;20029;-89
2022/03/27 11:25:52;;;;;;;18.88;8.07;;;22.30;40.00;;;;;;4940156;29;20110;-90
2022/03/27 11:28:20;;;;;;;18.40;8.50;;;22.30;40.30;;;;;;4939734;29;20501;-89
2022/03/27 11:31:17;;;;;;;15.70;8.13;;;22.30;40.10;;;;;;4958142;29;20038;-90
2022/03/27 11:33:45;;;;;;;18.13;8.40;;;22.30;40.00;;;;;;4949554;29;20031;-88
2022/03/27 11:36:14;;;;;;;15.73;7.78;;;22.40;40.30;;;;;;4956204;28;20058;-87
2022/03/27 11:38:52;;;;;;;20.27;8.13;;;22.40;40.00;;;;;;4976757;28;20434;-87
2022/03/27 11:41:42;;;;;;;19.67;8.15;;;22.50;40.00;;;;;;4973080;28;20057;-87
2022/03/27 11:44:17;;;;;;;15.70;7.85;;;22.60;39.90;;;;;;4957899;29;20023;-87
2022/03/27 11:46:57;;;;;;;19.90;8.07;;;22.60;39.70;;;;;;4957133;28;20050;-88
2022/03/27 11:49:37;;;;;;;17.52;7.80;;;22.40;39.70;;;;;;4957207;29;20190;-87
2022/03/27 11:52:19;;;;;;;12.98;7.32;;;22.40;39.80;;;;;;4945331;28;20019;-88
2022/03/27 11:54:47;;;;;;;16.13;7.95;;;22.30;39.70;;;;;;4960758;28;20034;-88
2022/03/27 11:57:13;;;;;;;20.52;8.45;;;22.20;40.10;;;;;;4951935;29;20027;-87
2022/03/27 11:59:50;;;;;;;15.75;7.78;;;22.10;40.20;;;;;;4941693;29;20031;-86
2022/03/27 12:02:19;;;;;;;11.88;7.25;;;22.20;40.30;;;;;;4939931;29;20023;-90
2022/03/27 12:04:55;;;;;;;11.50;6.78;;;22.30;40.10;;;;;;4938977;29;20027;-87
2022/03/27 12:07:22;;;;;;;14.50;7.18;;;22.50;40.20;;;;;;4939212;29;20615;-87
2022/03/27 12:09:59;;;;;;;12.25;7.25;;;22.70;40.50;;;;;;4933321;29;20028;-88
2022/03/27 12:12:27;;;;;;;20.45;7.72;;;22.80;40.30;;;;;;4918571;29;20486;-88
2022/03/27 12:14:59;;;;;;;13.88;7.55;;;22.80;40.10;;;;;;4934484;29;20038;-87
2022/03/27 12:17:31;;;;;;;;;;;22.70;40.00;;;;;;4947949;28;20123;-89
2022/03/27 12:20:06;;;;;;;16.10;7.90;;;22.60;40.50;;;;;;4962063;28;19907;-89
2022/03/27 12:22:39;;;;;;;15.30;7.40;;;22.60;40.60;;;;;;4938335;29;20027;-89
2022/03/27 12:25:28;;;;;;;14.02;7.88;;;22.70;40.90;;;;;;4953787;29;20035;-90
2022/03/27 12:30:52;;;;;;;14.57;7.50;;;23.10;40.40;;;;;;4969210;28;20107;-89
2022/03/27 12:33:23;;;;;;;13.40;7.47;;;23.10;40.40;;;;;;4941473;28;20031;-90
2022/03/27 12:36:03;;;;;;;14.82;7.50;;;23.00;40.10;;;;;;4954844;28;20019;-90
2022/03/27 12:38:30;;;;;;;18.85;7.72;;;22.80;40.00;;;;;;4956595;28;20519;-89
2022/03/27 12:40:56;;;;;;;14.63;7.10;;;22.60;40.20;;;;;;4952937;29;20078;-88
2022/03/27 12:43:22;;;;;;;15.40;7.97;;;22.50;40.20;;;;;;4949876;28;20425;-89
2022/03/27 12:45:48;;;;;;;15.73;7.90;;;22.40;40.50;;;;;;4938870;29;20094;-87
2022/03/27 12:48:20;;;;;;;16.30;7.68;;;22.50;40.80;;;;;;4937203;29;20042;-86
2022/03/27 12:50:50;;;;;;;;;;;22.60;40.90;;;;;;4937240;29;20053;-86
2022/03/27 12:53:19;;;;;;;12.32;7.10;;;22.80;41.20;;;;;;4937153;29;20378;-85
2022/03/27 12:55:57;;;;;;;13.52;6.97;;;22.90;41.00;;;;;;4952840;29;20090;-88
2022/03/27 12:58:40;;;;;;;14.00;7.70;;;23.00;41.10;;;;;;4941728;28;20023;-87
2022/03/27 13:01:10;;;;;;;14.07;7.82;;;23.10;40.70;;;;;;4936682;29;20442;-87
2022/03/27 13:03:37;;;;;;;16.60;7.30;;;23.00;40.60;;;;;;4961380;28;20109;-87
2022/03/27 13:06:07;;;;;;;13.57;7.78;;;23.10;40.70;;;;;;4950990;28;20117;-88
2022/03/27 13:08:37;;;;;;;13.90;6.60;;;23.10;40.50;;;;;;4956124;28;20035;-87
2022/03/27 13:11:18;;;;;;;13.98;6.45;;;23.10;40.50;;;;;;4971700;28;20026;-87
2022/03/27 13:13:46;;;;;;;13.10;6.75;;;22.90;40.30;;;;;;4956141;28;20030;-87
2022/03/27 13:16:31;;;;;;;14.55;6.35;;;22.90;41.10;;;;;;4955812;28;20019;-87
2022/03/27 13:19:15;;;;;;;12.75;6.00;;;23.00;40.90;;;;;;4955978;28;20118;-87
2022/03/27 13:21:56;;;;;;;13.05;6.75;;;23.20;41.00;;;;;;4951127;28;20023;-87
2022/03/27 13:24:27;;;;;;;15.70;6.10;;;23.40;41.20;;;;;;4936883;29;20051;-87
2022/03/27 13:26:56;;;;;;;11.63;5.93;;;23.70;41.30;;;;;;4953016;29;20134;-87
2022/03/27 13:29:22;;;;;;;15.85;6.28;;;23.70;40.50;;;;;;4936931;29;20027;-88
2022/03/27 13:31:48;;;;;;;14.60;7.20;;;23.60;40.30;;;;;;4946272;28;20053;-87
2022/03/27 13:34:15;;;;;;;17.08;7.63;;;23.40;40.20;;;;;;4959860;28;20031;-84
2022/03/27 13:36:44;;;;;;;15.35;6.32;;;23.50;40.30;;;;;;4952864;28;20023;-87
2022/03/27 13:39:11;;;;;;;13.82;6.40;;;23.40;40.90;;;;;;4955770;28;20447;-88
2022/03/27 13:44:25;;;;;;;13.50;5.75;;;23.90;40.80;;;;;;4957762;29;20063;-87
2022/03/27 13:46:51;;;;;;;11.10;6.30;;;24.30;40.20;;;;;;4940258;29;20027;-87
2022/03/27 13:49:18;;;;;;;12.25;5.97;;;24.30;40.00;;;;;;4940253;29;20031;-88
2022/03/27 13:51:45;;;;;;;11.02;6.00;;;24.20;40.00;;;;;;4940958;28;20434;-87
2022/03/27 13:54:11;;;;;;;12.10;5.88;;;24.20;40.80;;;;;;4938223;29;20688;-88
2022/03/27 13:56:39;;;;;;;9.85;6.18;;;24.30;41.60;;;;;;4921260;29;20518;-88
2022/03/27 13:59:05;;;;;;;11.68;5.70;;;24.20;40.10;;;;;;4937045;29;20615;-87
2022/03/27 14:01:35;;;;;;;12.82;6.32;;;23.90;40.60;;;;;;4933761;29;20042;-87
2022/03/27 14:04:02;;;;;;;10.55;6.28;;;23.60;40.30;;;;;;4943597;28;20038;-87
2022/03/27 14:06:27;;;;;;;11.75;5.75;;;23.30;40.40;;;;;;4975858;28;20058;-87
2022/03/27 14:08:53;;;;;;;14.52;6.03;;;23.10;40.60;;;;;;4959638;28;20082;-86
2022/03/27 14:11:19;;;;;;;8.45;5.20;;;22.80;40.80;;;;;;4941515;29;20570;-87
2022/03/27 14:13:45;;;;;;;11.15;5.25;;;22.60;41.50;;;;;;4938287;29;20031;-87